Index of /projects/mod-x

[ICO]NameLast modifiedSizeDescription

[DIR]Parent Directory  -  
[TXT]tools.html29-Mar-2000 15:57 7.4K 
[TXT]put-data.html29-Jan-2002 07:58 7.3K 
[TXT]pr.html02-Jul-2001 16:46 7.2K 
[DIR]plot/07-Nov-2006 15:00 -  
[TXT]plot-ldata.html29-Jan-2002 08:04 9.2K 
[TXT]plot-data.html07-Jul-2005 13:59 4.8K 
[DIR]news/29-Mar-2000 11:32 -  
[TXT]list.html29-Mar-2000 11:32 3.0K 
[TXT]lessons.html31-Mar-2000 17:36 4.0K 
[TXT]latenews.html29-Mar-2000 11:32 5.0K 
[DIR]images/29-Mar-2000 11:32 -  
[TXT]id-strat.html29-Mar-2000 11:32 7.4K 
[TXT]id-season.html29-Mar-2000 11:32 8.6K 
[TXT]id-pres.html29-Mar-2000 11:32 11K 
[TXT]id-moist.html29-Mar-2000 11:32 6.9K 
[TXT]id-heat.html29-Mar-2000 11:32 7.4K 
[TXT]id-green.html29-Mar-2000 11:32 6.8K 
[TXT]id-grav.html29-Mar-2000 11:32 8.6K 
[TXT]id-energy.html29-Mar-2000 11:32 13K 
[TXT]id-comp.html29-Mar-2000 11:32 5.8K 
[TXT]home.html.save29-Mar-2000 11:32 11K 
[TXT]home.html18-Feb-2003 20:26 7.7K 
[TXT]guide.html04-Apr-2000 14:49 26K 
[TXT]get-ldata.html29-Jan-2002 08:01 3.6K 
[TXT]get-data.html07-Jul-2005 13:55 3.1K 
[TXT]defs.html29-Mar-2000 11:32 22K 
[TXT]data.html12-Jul-2002 21:36 1.7K 
[TXT]compare.html29-Mar-2000 11:32 12K 
[TXT]archive.html29-Mar-2000 11:32 1.1K 
[TXT]ad-tempscales.html29-Mar-2000 11:32 2.7K 
[TXT]ad-surfgrav.html29-Mar-2000 11:32 6.0K 
[TXT]ad-molmot.html29-Mar-2000 11:32 3.7K 
[TXT]ad-layer.html29-Mar-2000 11:32 1.9K 
[TXT]ad-kepler.html29-Mar-2000 11:32 4.8K 
[TXT]ad-humid.html29-Mar-2000 11:32 2.1K 
[TXT]ad-hotballoon.html29-Mar-2000 11:32 3.5K 
[TXT]ad-globe.html29-Mar-2000 11:32 3.6K 
[TXT]ad-flashdist.html29-Mar-2000 11:32 2.0K 
[TXT]ad-flashangle.html29-Mar-2000 11:32 3.6K 
[TXT]ad-expatm.html29-Mar-2000 11:32 4.9K 
[TXT]ad-evap.html29-Mar-2000 11:32 2.0K 
[TXT]ad-escvel.html29-Mar-2000 11:32 5.9K 
[TXT]ad-densetemp.html29-Mar-2000 11:32 1.8K 
[TXT]ad-cuptemp.html29-Mar-2000 11:32 2.2K 
[TXT]ad-condense.html29-Mar-2000 11:32 1.9K 
[TXT]ad-co2.html29-Mar-2000 11:32 2.3K 
[TXT]ad-barometer.html29-Mar-2000 11:32 2.9K 
[TXT]ad-balballoon.html29-Mar-2000 11:32 2.0K 
[TXT]Welcome.html18-Feb-2003 20:26 7.7K 

Apache/2.2.14 (Ubuntu) Server at nova.stanford.edu Port 80